Time;durP1;ratioP1;P1;durP2;ratioP2;P2;SDS_P1;SDS_P2;PMS_P1;PMS_P2;Temp;Humidity;BMP_temperature;BMP_pressure;BME280_temperature;BME280_humidity;BME280_pressure;Samples;Min_cycle;Max_cycle;Signal;HPM_P1;HPM_P2
2022/08/23 00:02:27;;;;;;;19.63;9.57;;;20.80;99.90;;;;;;4858475;29;20041;-96
2022/08/23 00:04:55;;;;;;;19.35;9.25;;;20.80;99.90;;;;;;4859999;29;20093;-96
2022/08/23 00:07:41;;;;;;;18.58;9.45;;;20.70;99.90;;;;;;4851551;29;20056;-96
2022/08/23 00:10:13;;;;;;;19.98;9.23;;;20.80;99.90;;;;;;4860793;29;20097;-96
2022/08/23 00:12:42;;;;;;;22.63;9.70;;;20.80;99.90;;;;;;4860111;29;20052;-96
2022/08/23 00:15:12;;;;;;;23.35;10.73;;;20.70;99.90;;;;;;4850127;29;20071;-96
2022/08/23 00:17:41;;;;;;;18.92;9.27;;;20.70;99.90;;;;;;4867253;29;20053;-96
2022/08/23 00:20:12;;;;;;;24.20;10.25;;;20.70;99.90;;;;;;4853273;29;20157;-96
2022/08/23 00:22:40;;;;;;;20.13;9.20;;;20.80;99.90;;;;;;4862984;29;20063;-96
2022/08/23 00:25:11;;;;;;;20.08;9.07;;;20.70;99.90;;;;;;4843802;29;20050;-96
2022/08/23 00:27:39;;;;;;;17.50;8.43;;;20.70;99.90;;;;;;4863598;29;20145;-96
2022/08/23 00:30:09;;;;;;;19.75;8.27;;;20.70;99.90;;;;;;4876585;29;20304;-96
2022/08/23 00:32:38;;;;;;;21.35;7.90;;;20.70;99.90;;;;;;4864565;29;20130;-96
2022/08/23 00:35:08;;;;;;;19.80;9.15;;;20.70;99.90;;;;;;4877560;29;20065;-96
2022/08/23 00:37:36;;;;;;;18.05;8.65;;;20.70;99.90;;;;;;4864190;29;20436;-96
2022/08/23 00:40:08;;;;;;;19.15;9.52;;;20.60;99.90;;;;;;4839428;29;20059;-96
2022/08/23 00:48:41;;;;;;;20.05;9.30;;;20.60;99.90;;;;;;4858529;29;20040;-96
2022/08/23 00:51:13;;;;;;;19.85;8.77;;;20.70;99.90;;;;;;4862693;29;20046;-96
2022/08/23 00:53:45;;;;;;;20.98;9.93;;;20.70;99.90;;;;;;4846049;29;20048;-96
2022/08/23 00:56:16;;;;;;;17.63;8.15;;;20.70;99.90;;;;;;4860454;29;20045;-96
2022/08/23 00:58:45;;;;;;;18.45;8.38;;;20.70;99.90;;;;;;4858785;29;20072;-95
2022/08/23 01:01:13;;;;;;;19.85;8.55;;;20.70;99.90;;;;;;4865248;29;20041;-96
2022/08/23 01:03:49;;;;;;;21.52;9.82;;;20.70;99.90;;;;;;4868676;29;20056;-96
2022/08/23 01:07:01;;;;;;;23.00;8.73;;;20.70;99.90;;;;;;4862076;29;20109;-96
2022/08/23 01:09:30;;;;;;;25.58;9.70;;;20.70;99.90;;;;;;4861154;29;20049;-96
2022/08/23 01:12:22;;;;;;;22.38;9.57;;;20.70;99.90;;;;;;4852118;29;20368;-96
2022/08/23 01:15:27;;;;;;;24.65;9.38;;;20.70;99.90;;;;;;4859788;29;20060;-96
2022/08/23 01:18:06;;;;;;;21.70;8.40;;;20.70;99.90;;;;;;4872886;29;20049;-95
2022/08/23 01:20:57;;;;;;;20.20;9.52;;;20.70;99.90;;;;;;4859523;29;20099;-96
2022/08/23 01:23:30;;;;;;;22.42;9.02;;;20.70;99.90;;;;;;4863079;29;20140;-96
2022/08/23 01:25:58;;;;;;;20.30;8.75;;;20.70;99.90;;;;;;4852064;29;20041;-96
2022/08/23 01:28:26;;;;;;;21.58;9.20;;;20.70;99.90;;;;;;4843318;29;20041;-96
2022/08/23 01:30:54;;;;;;;20.90;8.77;;;20.70;99.90;;;;;;4859230;29;20045;-96
2022/08/23 01:33:22;;;;;;;22.55;9.50;;;20.70;99.90;;;;;;4848619;29;20053;-96
2022/08/23 01:35:52;;;;;;;24.90;9.20;;;20.60;99.90;;;;;;4859818;29;20050;-96
2022/08/23 01:38:21;;;;;;;20.73;8.90;;;20.60;99.90;;;;;;4845974;29;20088;-96
2022/08/23 01:40:50;;;;;;;19.67;8.65;;;20.60;99.90;;;;;;4859070;29;20037;-96
2022/08/23 01:43:20;;;;;;;19.35;7.45;;;20.60;99.90;;;;;;4846651;29;20057;-96
2022/08/23 01:45:51;;;;;;;19.45;8.20;;;20.60;99.90;;;;;;4859081;29;20072;-96
2022/08/23 01:48:21;;;;;;;18.50;8.10;;;20.60;99.90;;;;;;4846610;29;20053;-96
2022/08/23 01:50:50;;;;;;;23.02;9.32;;;20.60;99.90;;;;;;4853844;29;20650;-96
2022/08/23 01:53:18;;;;;;;17.65;8.95;;;20.60;99.90;;;;;;4874187;29;20059;-96
2022/08/23 01:55:48;;;;;;;19.77;9.07;;;20.60;99.90;;;;;;4861483;29;20044;-96
2022/08/23 01:58:18;;;;;;;19.83;8.32;;;20.60;99.90;;;;;;4851228;29;20040;-96
2022/08/23 02:00:46;;;;;;;19.63;8.40;;;20.50;99.90;;;;;;4847252;29;20049;-96
2022/08/23 02:03:14;;;;;;;16.05;7.15;;;20.50;99.90;;;;;;4864640;29;20073;-96
2022/08/23 02:05:44;;;;;;;15.70;6.97;;;20.60;99.90;;;;;;4859638;29;20049;-96
2022/08/23 02:11:07;;;;;;;16.80;8.05;;;20.50;99.90;;;;;;4877139;29;20049;-96
2022/08/23 02:13:37;;;;;;;16.40;7.72;;;20.50;99.90;;;;;;4863322;29;20044;-96
2022/08/23 02:16:05;;;;;;;15.63;7.28;;;20.40;99.90;;;;;;4857329;29;20140;-96
2022/08/23 02:18:34;;;;;;;17.35;6.65;;;20.40;99.90;;;;;;4861823;29;20061;-96
2022/08/23 02:21:03;;;;;;;19.67;8.35;;;20.40;99.90;;;;;;4868085;29;20136;-96
2022/08/23 02:23:32;;;;;;;17.70;8.73;;;20.40;99.90;;;;;;4862560;29;20361;-96
2022/08/23 02:25:59;;;;;;;24.83;9.88;;;20.40;99.90;;;;;;4872996;29;20049;-96
2022/08/23 02:28:28;;;;;;;20.63;9.55;;;20.40;99.90;;;;;;4866212;29;20052;-96
2022/08/23 02:30:56;;;;;;;22.23;10.30;;;20.50;99.90;;;;;;4880512;29;20394;-96
2022/08/23 02:33:23;;;;;;;24.35;10.15;;;20.40;99.90;;;;;;4864811;29;20045;-96
2022/08/23 02:35:51;;;;;;;28.67;11.15;;;20.40;99.90;;;;;;4854811;29;20057;-96
2022/08/23 02:38:18;;;;;;;27.95;11.00;;;20.40;99.90;;;;;;4856652;29;20057;-96
2022/08/23 02:40:47;;;;;;;26.35;10.68;;;20.40;99.90;;;;;;4872136;29;20072;-96
2022/08/23 02:43:28;;;;;;;22.50;10.50;;;20.40;99.90;;;;;;4844492;29;20578;-96
2022/08/23 02:45:57;;;;;;;34.35;13.68;;;20.40;99.90;;;;;;4851752;29;20052;-96
2022/08/23 02:48:24;;;;;;;28.92;11.32;;;20.40;99.90;;;;;;4856206;29;20049;-96
2022/08/23 02:51:05;;;;;;;27.73;10.95;;;20.40;99.90;;;;;;4879864;29;20049;-96
2022/08/23 02:53:34;;;;;;;34.08;11.98;;;20.40;99.90;;;;;;4858691;29;20057;-96
2022/08/23 02:56:05;;;;;;;31.17;11.90;;;20.50;99.90;;;;;;4858648;29;20124;-96
2022/08/23 02:58:47;;;;;;;35.90;13.40;;;20.50;99.90;;;;;;4859480;29;20117;-96
2022/08/23 03:01:26;;;;;;;24.05;10.48;;;20.40;99.90;;;;;;4860164;29;20057;-95
2022/08/23 03:03:58;;;;;;;24.92;10.75;;;20.40;99.90;;;;;;4873264;29;20050;-96
2022/08/23 03:06:28;;;;;;;;;;;20.40;99.90;;;;;;4846769;29;20057;-96
2022/08/23 03:08:56;;;;;;;27.23;9.75;;;20.40;99.90;;;;;;4858237;29;19924;-96
2022/08/23 03:11:24;;;;;;;24.73;9.55;;;20.40;99.90;;;;;;4844101;29;20057;-96
2022/08/23 03:13:53;;;;;;;19.48;8.43;;;20.40;99.90;;;;;;4854919;29;20125;-96
2022/08/23 03:16:21;;;;;;;16.63;7.20;;;20.40;99.90;;;;;;4842805;29;20057;-96
2022/08/23 03:18:49;;;;;;;19.63;8.10;;;20.40;99.90;;;;;;4841309;29;20048;-96
2022/08/23 03:21:18;;;;;;;12.88;5.97;;;20.40;99.90;;;;;;4855632;29;20060;-96
2022/08/23 03:23:52;;;;;;;15.52;5.97;;;20.40;99.90;;;;;;4854232;29;20053;-96
2022/08/23 03:26:20;;;;;;;12.40;5.88;;;20.30;99.90;;;;;;4858399;29;20101;-96
2022/08/23 03:28:56;;;;;;;12.38;5.93;;;20.30;99.90;;;;;;4849408;29;20046;-96
2022/08/23 03:31:28;;;;;;;12.95;5.38;;;20.30;99.90;;;;;;4844836;29;20076;-96
2022/08/23 03:34:06;;;;;;;10.38;5.18;;;20.30;99.90;;;;;;4867336;29;20042;-96
2022/08/23 03:36:34;;;;;;;10.90;5.90;;;20.30;99.90;;;;;;4859477;29;20052;-96
2022/08/23 03:39:04;;;;;;;11.27;5.65;;;20.30;99.90;;;;;;4844214;29;20059;-96
2022/08/23 03:41:32;;;;;;;9.77;5.43;;;20.30;99.90;;;;;;4858178;29;20447;-96
2022/08/23 03:43:59;;;;;;;12.77;5.88;;;20.30;99.90;;;;;;4859913;29;20117;-96
2022/08/23 03:46:30;;;;;;;10.45;5.45;;;20.30;99.90;;;;;;4855319;29;20686;-96
2022/08/23 03:49:01;;;;;;;13.02;5.75;;;20.30;99.90;;;;;;4854122;29;20057;-96
2022/08/23 03:51:41;;;;;;;14.73;6.18;;;20.30;99.90;;;;;;4854325;29;20050;-96
2022/08/23 03:54:09;;;;;;;10.75;5.07;;;20.30;99.90;;;;;;4846261;29;20050;-96
2022/08/23 03:56:48;;;;;;;11.07;6.13;;;20.30;99.90;;;;;;4842992;29;20423;-96
2022/08/23 03:59:16;;;;;;;10.90;5.85;;;20.30;99.90;;;;;;4844128;29;20049;-95
2022/08/23 04:01:44;;;;;;;10.25;5.50;;;20.30;99.90;;;;;;4862603;29;20041;-96
2022/08/23 04:04:14;;;;;;;12.20;5.65;;;20.30;99.90;;;;;;4869401;29;20061;-96
2022/08/23 04:06:58;;;;;;;12.98;5.43;;;20.30;99.90;;;;;;4846875;29;20037;-96
2022/08/23 04:09:26;;;;;;;11.13;5.28;;;20.30;99.90;;;;;;4857932;29;20057;-96
2022/08/23 04:11:55;;;;;;;9.07;5.80;;;20.30;99.90;;;;;;4877040;29;20046;-96
2022/08/23 04:14:23;;;;;;;12.95;5.32;;;20.30;99.90;;;;;;4852416;29;20057;-96
2022/08/23 04:16:51;;;;;;;13.40;5.70;;;20.30;99.90;;;;;;4857544;29;20037;-96
2022/08/23 04:19:22;;;;;;;9.15;5.25;;;20.20;99.90;;;;;;4859797;29;20054;-96
2022/08/23 04:22:02;;;;;;;10.57;6.32;;;20.30;99.90;;;;;;4852660;29;20038;-96
2022/08/23 04:24:38;;;;;;;8.88;5.18;;;20.30;99.90;;;;;;4857875;29;20037;-96
2022/08/23 04:27:06;;;;;;;12.63;6.45;;;20.20;99.90;;;;;;4856744;29;20041;-96
2022/08/23 04:29:34;;;;;;;11.48;6.05;;;20.20;99.90;;;;;;4838184;29;20050;-95
2022/08/23 04:32:03;;;;;;;10.93;5.88;;;20.30;99.90;;;;;;4855861;29;20086;-96
2022/08/23 04:34:41;;;;;;;11.32;6.10;;;20.30;99.90;;;;;;4860372;29;20077;-96
2022/08/23 04:37:17;;;;;;;11.90;5.90;;;20.30;99.90;;;;;;4846300;29;20144;-96
2022/08/23 04:42:39;;;;;;;10.65;5.82;;;20.30;99.90;;;;;;4857960;29;20069;-96
2022/08/23 04:45:07;;;;;;;13.20;6.07;;;20.30;99.90;;;;;;4856657;29;20045;-96
2022/08/23 04:47:40;;;;;;;14.65;6.60;;;20.30;99.90;;;;;;4859582;29;20517;-96
2022/08/23 04:50:09;;;;;;;10.93;6.22;;;20.30;99.90;;;;;;4862711;29;20048;-96
2022/08/23 04:52:55;;;;;;;12.85;6.53;;;20.30;99.90;;;;;;4863263;29;20086;-96
2022/08/23 04:55:22;;;;;;;12.85;6.80;;;20.30;99.90;;;;;;4849655;29;20049;-95
2022/08/23 04:58:00;;;;;;;18.40;6.32;;;20.30;99.90;;;;;;4850139;29;20068;-96
2022/08/23 05:00:32;;;;;;;17.73;7.00;;;20.30;99.90;;;;;;4861047;29;20104;-95
2022/08/23 05:03:00;;;;;;;16.05;7.55;;;20.30;99.90;;;;;;4844794;29;20076;-96
2022/08/23 05:05:28;;;;;;;14.95;7.20;;;20.30;99.90;;;;;;4860597;29;20410;-96
2022/08/23 05:07:55;;;;;;;14.68;8.15;;;20.30;99.90;;;;;;4866715;29;20041;-96
2022/08/23 05:10:23;;;;;;;14.52;7.85;;;20.40;99.90;;;;;;4877776;29;20499;-96
2022/08/23 05:12:52;;;;;;;16.67;7.55;;;20.40;99.90;;;;;;4850054;29;20787;-96
2022/08/23 05:15:20;;;;;;;13.57;7.07;;;20.40;99.90;;;;;;4869609;29;20447;-95
2022/08/23 05:17:56;;;;;;;14.38;7.25;;;20.40;99.90;;;;;;4869732;29;20105;-96
2022/08/23 05:20:23;;;;;;;17.33;6.70;;;20.40;99.90;;;;;;4844011;29;20068;-96
2022/08/23 05:22:50;;;;;;;15.25;7.15;;;20.50;99.90;;;;;;4844405;29;20084;-96
2022/08/23 05:25:51;;;;;;;13.88;7.03;;;20.50;99.90;;;;;;4863320;29;20489;-96
2022/08/23 05:28:33;;;;;;;12.80;6.85;;;20.50;99.90;;;;;;4848522;29;20052;-96
2022/08/23 05:31:11;;;;;;;17.60;8.00;;;20.50;99.90;;;;;;4843937;29;20041;-96
2022/08/23 05:33:44;;;;;;;16.35;8.07;;;20.40;99.90;;;;;;4878709;29;20136;-96
2022/08/23 05:36:14;;;;;;;12.95;7.13;;;20.50;99.90;;;;;;4856625;29;20057;-96
2022/08/23 05:38:42;;;;;;;18.92;7.88;;;20.50;99.90;;;;;;4876077;29;20454;-96
2022/08/23 05:41:11;;;;;;;16.25;7.90;;;20.50;99.90;;;;;;4865509;29;20048;-94
2022/08/23 05:43:39;;;;;;;14.52;7.78;;;20.60;99.90;;;;;;4841758;29;20053;-95
2022/08/23 05:46:10;;;;;;;14.50;7.38;;;20.60;99.90;;;;;;4856408;29;20516;-94
2022/08/23 05:48:46;;;;;;;15.38;7.82;;;20.50;99.90;;;;;;4869565;29;20040;-94
2022/08/23 05:51:28;;;;;;;17.50;7.50;;;20.50;99.90;;;;;;4846964;29;20049;-95
2022/08/23 05:54:06;;;;;;;15.52;7.43;;;20.50;99.90;;;;;;4859956;29;20057;-96
2022/08/23 05:56:37;;;;;;;14.25;6.63;;;20.50;99.90;;;;;;4863319;29;20083;-93
2022/08/23 05:59:11;;;;;;;12.35;6.68;;;20.60;99.90;;;;;;4847947;29;20048;-95
2022/08/23 06:01:41;;;;;;;12.07;6.72;;;20.60;99.90;;;;;;4840334;29;20179;-94
2022/08/23 06:04:15;;;;;;;12.05;6.95;;;20.50;99.90;;;;;;4861907;29;20077;-94
2022/08/23 06:06:44;;;;;;;13.02;7.10;;;20.50;99.90;;;;;;4854017;29;20049;-96
2022/08/23 06:09:14;;;;;;;14.95;7.85;;;20.50;99.90;;;;;;4858439;29;20041;-93
2022/08/23 06:11:44;;;;;;;12.38;6.20;;;20.60;99.90;;;;;;4854087;29;20076;-96
2022/08/23 06:14:12;;;;;;;15.00;7.28;;;20.60;99.90;;;;;;4846052;29;20064;-93
2022/08/23 06:16:45;;;;;;;12.45;6.53;;;20.60;99.90;;;;;;4859821;29;20052;-95
2022/08/23 06:19:17;;;;;;;15.98;7.88;;;20.60;99.90;;;;;;4859519;29;20094;-94
2022/08/23 06:21:48;;;;;;;16.38;7.63;;;20.60;99.90;;;;;;4858107;29;20057;-96
2022/08/23 06:24:22;;;;;;;17.33;8.23;;;20.70;99.90;;;;;;4861695;29;20055;-94
2022/08/23 06:26:53;;;;;;;16.75;8.45;;;20.70;99.90;;;;;;4848620;29;20055;-94
2022/08/23 06:29:21;;;;;;;18.30;9.00;;;20.80;99.90;;;;;;4859325;29;20050;-96
2022/08/23 06:32:01;;;;;;;17.05;8.50;;;20.80;99.90;;;;;;4852559;29;20451;-93
2022/08/23 06:34:36;;;;;;;17.77;9.55;;;20.80;99.90;;;;;;4847617;29;20053;-93
2022/08/23 06:37:39;;;;;;;18.08;8.77;;;20.80;99.90;;;;;;4843140;29;20060;-95
2022/08/23 06:40:26;;;;;;;17.70;8.88;;;20.80;99.90;;;;;;4851285;29;20066;-96
2022/08/23 06:42:59;;;;;;;16.00;7.97;;;20.70;99.90;;;;;;4847546;29;20048;-96
2022/08/23 06:45:45;;;;;;;16.42;8.23;;;20.70;99.90;;;;;;4858381;29;20057;-96
2022/08/23 06:48:21;;;;;;;16.33;8.10;;;20.80;99.90;;;;;;4856296;29;20140;-96
2022/08/23 06:50:49;;;;;;;17.88;7.97;;;20.90;99.90;;;;;;4853530;29;20371;-95
2022/08/23 06:53:29;;;;;;;15.98;7.80;;;20.80;99.90;;;;;;4855714;29;20045;-92
2022/08/23 06:56:17;;;;;;;15.07;6.85;;;20.90;99.90;;;;;;4854203;29;20053;-96
2022/08/23 06:59:05;;;;;;;16.35;7.57;;;20.90;99.90;;;;;;4855493;29;20061;-94
2022/08/23 07:02:02;;;;;;;16.13;8.07;;;20.90;99.90;;;;;;4861164;29;20097;-94
2022/08/23 07:04:54;;;;;;;15.80;7.50;;;20.90;99.90;;;;;;4867282;29;20063;-93
2022/08/23 07:07:35;;;;;;;15.63;7.53;;;21.10;99.90;;;;;;4875608;29;20053;-93
2022/08/23 07:10:13;;;;;;;12.32;6.90;;;21.20;99.90;;;;;;4843120;29;20041;-95
2022/08/23 07:12:41;;;;;;;13.00;6.97;;;21.40;99.90;;;;;;4846918;29;20069;-93
2022/08/23 07:15:11;;;;;;;15.05;6.90;;;21.70;99.90;;;;;;4873011;29;20037;-95
2022/08/23 07:17:42;;;;;;;15.13;7.13;;;21.80;99.90;;;;;;4857018;29;20460;-94
2022/08/23 07:20:10;;;;;;;11.65;6.40;;;21.80;99.90;;;;;;4849032;29;20051;-93
2022/08/23 07:22:41;;;;;;;11.82;6.68;;;21.80;99.90;;;;;;4859216;29;20612;-94
2022/08/23 07:25:09;;;;;;;9.75;5.85;;;21.80;99.90;;;;;;4857257;29;20045;-95
2022/08/23 07:27:38;;;;;;;12.15;6.00;;;21.70;99.90;;;;;;4856691;29;20042;-95
2022/08/23 07:30:07;;;;;;;9.02;5.40;;;21.90;99.90;;;;;;4846967;29;20077;-95
2022/08/23 07:32:39;;;;;;;10.70;6.00;;;22.20;99.90;;;;;;4856526;29;20670;-95
2022/08/23 07:35:23;;;;;;;11.63;6.47;;;22.10;99.90;;;;;;4864934;29;20151;-95
2022/08/23 07:37:56;;;;;;;;;;;22.00;99.90;;;;;;4863651;29;20060;-93
2022/08/23 07:40:28;;;;;;;11.93;5.63;;;22.00;99.90;;;;;;4850025;29;19934;-95
2022/08/23 07:43:02;;;;;;;10.98;5.97;;;22.00;99.90;;;;;;4879666;29;20054;-93
2022/08/23 07:45:30;;;;;;;10.25;6.05;;;22.00;99.90;;;;;;4863746;29;20314;-92
2022/08/23 07:48:01;;;;;;;10.32;5.47;;;22.10;99.90;;;;;;4864897;29;20129;-93
2022/08/23 07:50:34;;;;;;;11.05;6.30;;;22.30;99.90;;;;;;4846585;29;20045;-92
2022/08/23 07:53:03;;;;;;;11.48;5.82;;;22.40;99.90;;;;;;4849796;29;20048;-93
2022/08/23 07:55:30;;;;;;;13.30;5.88;;;22.20;99.90;;;;;;4865007;29;20045;-93
2022/08/23 07:58:21;;;;;;;9.98;5.00;;;22.20;99.90;;;;;;4861174;29;20072;-92
2022/08/23 08:00:54;;;;;;;7.72;4.72;;;22.70;99.90;;;;;;4866347;29;20049;-96
2022/08/23 08:03:38;;;;;;;10.48;4.85;;;22.90;99.90;;;;;;4858384;29;20049;-93
2022/08/23 08:06:38;;;;;;;9.10;4.80;;;23.20;99.90;;;;;;4849275;29;20060;-93
2022/08/23 08:09:06;;;;;;;8.35;4.50;;;23.20;99.90;;;;;;4875795;29;20163;-94
2022/08/23 08:11:34;;;;;;;9.30;4.35;;;23.20;99.90;;;;;;4850714;29;20052;-91
2022/08/23 08:14:06;;;;;;;6.47;3.45;;;23.10;99.90;;;;;;4860419;29;20049;-96
2022/08/23 08:16:44;;;;;;;8.68;4.93;;;23.10;99.90;;;;;;4879247;29;20072;-95
2022/08/23 08:19:17;;;;;;;7.95;4.45;;;23.10;99.90;;;;;;4877054;29;20049;-94
2022/08/23 08:22:20;;;;;;;5.82;3.40;;;23.40;99.90;;;;;;4868045;29;20049;-95
2022/08/23 08:25:08;;;;;;;7.25;3.78;;;23.60;99.90;;;;;;4861245;29;20596;-92
2022/08/23 08:27:38;;;;;;;7.50;3.58;;;23.80;99.90;;;;;;4855574;29;20104;-95
2022/08/23 08:30:07;;;;;;;6.18;3.33;;;23.90;99.90;;;;;;4866461;29;20495;-93
2022/08/23 08:32:38;;;;;;;6.63;3.55;;;24.10;99.90;;;;;;4862113;29;20136;-96
2022/08/23 08:35:14;;;;;;;7.53;3.15;;;24.10;98.60;;;;;;4847885;29;20101;-94
2022/08/23 08:37:42;;;;;;;4.70;2.67;;;24.00;98.60;;;;;;4876797;29;20057;-96
2022/08/23 08:40:10;;;;;;;3.95;2.28;;;24.20;98.70;;;;;;4857241;29;20395;-93
2022/08/23 08:43:07;;;;;;;5.35;2.97;;;24.20;97.70;;;;;;4866752;29;20060;-92
2022/08/23 08:46:00;;;;;;;4.50;2.60;;;24.10;97.80;;;;;;4863951;29;20049;-93
2022/08/23 08:48:37;;;;;;;4.47;2.53;;;23.70;99.00;;;;;;4875507;29;20137;-92
2022/08/23 08:51:18;;;;;;;4.75;2.85;;;23.50;99.10;;;;;;4861164;29;20101;-93
2022/08/23 08:53:48;;;;;;;4.65;3.00;;;23.40;99.90;;;;;;4872190;29;20093;-91
2022/08/23 08:56:31;;;;;;;5.85;3.35;;;23.70;99.90;;;;;;4860336;29;20064;-90
2022/08/23 08:59:18;;;;;;;6.88;2.83;;;23.80;99.80;;;;;;4869101;29;20129;-91
2022/08/23 09:01:46;;;;;;;4.93;3.00;;;23.70;99.90;;;;;;4878396;29;20054;-92
2022/08/23 09:04:21;;;;;;;5.13;2.70;;;23.70;99.90;;;;;;4857754;29;20141;-93
2022/08/23 09:06:57;;;;;;;7.13;3.35;;;23.70;99.90;;;;;;4880309;29;20045;-96
2022/08/23 09:09:43;;;;;;;7.45;4.32;;;23.70;99.90;;;;;;4862469;29;20052;-92
2022/08/23 09:12:25;;;;;;;7.38;3.55;;;23.80;99.10;;;;;;4847419;29;20067;-91
2022/08/23 09:15:13;;;;;;;6.07;3.22;;;23.60;98.70;;;;;;4844696;29;20044;-91
2022/08/23 09:17:55;;;;;;;7.63;3.60;;;23.90;99.90;;;;;;4858859;29;20052;-93
2022/08/23 09:20:28;;;;;;;3.03;1.75;;;24.10;99.90;;;;;;4857140;29;20101;-92
2022/08/23 09:23:20;;;;;;;6.85;3.10;;;24.30;98.70;;;;;;4844562;29;20132;-92
2022/08/23 09:25:53;;;;;;;4.50;2.10;;;24.40;98.80;;;;;;4860666;29;20045;-94
2022/08/23 09:28:35;;;;;;;3.17;1.67;;;24.60;97.20;;;;;;4850192;29;20045;-95
2022/08/23 09:31:04;;;;;;;3.67;2.08;;;24.60;97.10;;;;;;4854532;29;20144;-92
2022/08/23 09:33:40;;;;;;;4.72;1.75;;;24.60;94.80;;;;;;4847697;29;20045;-96
2022/08/23 09:36:24;;;;;;;5.25;2.50;;;24.40;94.10;;;;;;4855696;29;20065;-94
2022/08/23 09:39:22;;;;;;;6.30;3.58;;;24.30;96.20;;;;;;4861714;29;20069;-93
2022/08/23 09:41:59;;;;;;;3.75;2.88;;;24.40;96.40;;;;;;4875463;29;20053;-93
2022/08/23 09:44:39;;;;;;;6.10;3.40;;;24.40;96.80;;;;;;4865117;29;20049;-91
2022/08/23 09:47:12;;;;;;;5.20;3.22;;;24.30;95.50;;;;;;4867475;29;20041;-91
2022/08/23 09:49:50;;;;;;;5.10;2.22;;;24.10;94.30;;;;;;4847083;29;20139;-93
2022/08/23 09:52:25;;;;;;;5.60;2.58;;;24.10;96.20;;;;;;4879167;29;20049;-92
2022/08/23 09:55:02;;;;;;;5.10;2.00;;;24.10;97.30;;;;;;4847662;29;20079;-94
2022/08/23 09:57:33;;;;;;;3.85;2.13;;;24.10;97.40;;;;;;4858807;29;20475;-93
2022/08/23 10:00:23;;;;;;;4.03;1.80;;;24.00;95.90;;;;;;4852880;29;20103;-94
2022/08/23 10:02:56;;;;;;;3.58;1.60;;;23.90;96.30;;;;;;4877443;29;20210;-91
2022/08/23 10:05:39;;;;;;;2.42;1.40;;;23.90;96.30;;;;;;4871124;29;20144;-91
2022/08/23 10:08:32;;;;;;;2.30;1.63;;;23.90;96.40;;;;;;4847734;29;20056;-89
2022/08/23 10:11:19;;;;;;;4.47;2.70;;;23.90;95.80;;;;;;4864280;29;20141;-90
2022/08/23 10:13:47;;;;;;;4.18;1.83;;;23.80;94.50;;;;;;4839230;29;20057;-92
2022/08/23 10:16:27;;;;;;;5.03;2.40;;;23.80;96.10;;;;;;4872312;29;20149;-91
2022/08/23 10:19:48;;;;;;;3.15;2.20;;;23.80;95.90;;;;;;4845374;29;20072;-92
2022/08/23 10:22:22;;;;;;;4.35;2.40;;;23.80;97.00;;;;;;4837701;29;20049;-92
2022/08/23 10:25:26;;;;;;;4.78;2.65;;;23.80;96.80;;;;;;4862535;29;20046;-92
2022/08/23 10:31:06;;;;;;;4.68;2.75;;;24.20;96.30;;;;;;4864022;29;20049;-92
2022/08/23 10:33:56;;;;;;;7.13;3.17;;;24.30;96.60;;;;;;4862100;29;20141;-89
2022/08/23 10:36:32;;;;;;;4.43;2.50;;;24.20;95.60;;;;;;4856512;29;20075;-90
2022/08/23 10:39:13;;;;;;;4.57;2.70;;;24.10;94.70;;;;;;4864101;29;20076;-92
2022/08/23 10:42:05;;;;;;;3.93;2.50;;;24.00;94.00;;;;;;4842959;29;20136;-91
2022/08/23 10:45:09;;;;;;;7.18;3.05;;;24.00;94.10;;;;;;4862428;29;20093;-91
2022/08/23 10:47:44;;;;;;;5.05;2.92;;;24.10;94.70;;;;;;4862599;29;20049;-93
2022/08/23 10:50:20;;;;;;;4.57;2.80;;;24.30;95.60;;;;;;4847153;29;20051;-91
2022/08/23 10:52:48;;;;;;;3.92;2.47;;;24.30;95.60;;;;;;4854819;29;20083;-92
2022/08/23 10:55:35;;;;;;;3.45;2.35;;;24.50;94.90;;;;;;4874416;29;20482;-94
2022/08/23 10:58:09;;;;;;;4.10;2.65;;;24.70;96.00;;;;;;4864520;29;20042;-91
2022/08/23 11:00:38;;;;;;;3.35;2.45;;;24.80;94.50;;;;;;4846809;29;20136;-91
2022/08/23 11:03:24;;;;;;;3.60;2.22;;;24.90;93.20;;;;;;4845358;29;20105;-91
2022/08/23 11:06:25;;;;;;;6.13;3.08;;;25.10;94.70;;;;;;4873392;29;20144;-91
2022/08/23 11:09:00;;;;;;;3.53;2.13;;;25.10;92.90;;;;;;4854790;29;20041;-89
2022/08/23 11:11:42;;;;;;;4.43;2.08;;;25.20;94.10;;;;;;4845546;29;20044;-89
2022/08/23 11:14:23;;;;;;;6.53;2.53;;;25.40;94.00;;;;;;4863941;29;20045;-89
2022/08/23 11:16:58;;;;;;;3.45;2.22;;;25.50;92.50;;;;;;4878587;29;20312;-88
2022/08/23 11:19:51;;;;;;;4.78;2.42;;;25.50;92.30;;;;;;4850297;29;20045;-91
2022/08/23 11:22:32;;;;;;;4.43;2.40;;;25.50;92.60;;;;;;4847322;29;20056;-90
2022/08/23 11:25:24;;;;;;;4.10;2.37;;;25.50;92.80;;;;;;4845139;29;20045;-92
2022/08/23 11:28:22;;;;;;;3.25;2.00;;;25.50;92.70;;;;;;4877839;29;20049;-93
2022/08/23 11:31:10;;;;;;;3.15;2.05;;;25.50;92.40;;;;;;4863381;29;20045;-92
2022/08/23 11:33:52;;;;;;;2.83;1.95;;;25.70;90.90;;;;;;4863504;29;20045;-91
2022/08/23 11:36:25;;;;;;;6.60;2.60;;;25.70;91.30;;;;;;4855360;29;20143;-94
2022/08/23 11:38:54;;;;;;;4.00;2.55;;;25.70;90.40;;;;;;4847756;29;20041;-92
2022/08/23 11:41:34;;;;;;;3.67;2.05;;;25.60;89.40;;;;;;4856375;29;20058;-91
2022/08/23 11:44:01;;;;;;;5.10;2.50;;;25.70;90.40;;;;;;4858750;29;20053;-90
2022/08/23 11:46:33;;;;;;;4.57;2.10;;;25.80;91.30;;;;;;4871671;29;20044;-90
2022/08/23 11:49:29;;;;;;;2.70;2.10;;;25.70;90.50;;;;;;4865856;29;20096;-89
2022/08/23 11:52:35;;;;;;;3.70;2.08;;;25.70;91.80;;;;;;4857512;29;20057;-95
2022/08/23 11:55:26;;;;;;;2.78;2.03;;;25.70;89.80;;;;;;4844778;29;20057;-93
2022/08/23 11:58:14;;;;;;;6.30;2.05;;;25.50;88.60;;;;;;4862038;29;20045;-91
2022/08/23 12:01:09;;;;;;;3.25;2.05;;;25.70;89.40;;;;;;4850476;29;20140;-90
2022/08/23 12:03:58;;;;;;;2.63;1.83;;;25.70;88.70;;;;;;4862797;29;20495;-93
2022/08/23 12:06:38;;;;;;;4.97;1.45;;;25.90;90.30;;;;;;4873464;29;20124;-93
2022/08/23 12:09:11;;;;;;;;;;;26.10;88.90;;;;;;4863328;29;20053;-93
2022/08/23 12:11:53;;;;;;;2.65;1.65;;;26.20;87.90;;;;;;4860302;29;19923;-91
2022/08/23 12:14:30;;;;;;;3.20;2.13;;;26.10;85.80;;;;;;4861549;29;20057;-93
2022/08/23 12:17:04;;;;;;;4.45;2.05;;;26.10;82.80;;;;;;4855584;29;20156;-94
2022/08/23 12:19:38;;;;;;;3.33;2.13;;;26.00;84.90;;;;;;4842503;29;20149;-93
2022/08/23 12:22:20;;;;;;;3.67;1.90;;;26.10;84.90;;;;;;4870163;29;20147;-93
2022/08/23 12:25:07;;;;;;;2.80;1.70;;;25.90;84.90;;;;;;4877626;29;20052;-93
2022/08/23 12:27:42;;;;;;;2.50;1.70;;;25.80;86.60;;;;;;4859854;29;20049;-91
2022/08/23 12:30:53;;;;;;;5.68;1.73;;;26.00;90.00;;;;;;4861415;29;20073;-91
2022/08/23 12:33:40;;;;;;;4.50;1.85;;;26.30;89.10;;;;;;4845657;29;20060;-91
2022/08/23 12:36:37;;;;;;;5.30;2.00;;;26.30;86.20;;;;;;4858490;29;20055;-94
2022/08/23 12:39:43;;;;;;;3.67;2.33;;;26.40;84.30;;;;;;4859510;29;20058;-90
2022/08/23 12:42:18;;;;;;;3.70;2.38;;;26.30;84.50;;;;;;4804992;29;20051;-89
2022/08/23 12:45:02;;;;;;;4.25;2.33;;;26.30;84.20;;;;;;4822073;29;20065;-90
2022/08/23 12:47:32;;;;;;;4.65;2.38;;;26.30;84.70;;;;;;4849680;29;20049;-86
2022/08/23 12:50:03;;;;;;;4.63;2.85;;;26.10;81.40;;;;;;4863508;29;20045;-88
2022/08/23 12:52:33;;;;;;;4.07;2.67;;;25.90;82.80;;;;;;4847472;29;20055;-89
2022/08/23 12:55:17;;;;;;;3.53;2.35;;;25.70;84.80;;;;;;4846629;29;20451;-88
2022/08/23 12:57:53;;;;;;;;;;;25.70;86.00;;;;;;4877262;29;20056;-90
2022/08/23 13:00:24;;;;;;;4.95;2.55;;;25.60;86.20;;;;;;4861024;29;19924;-88
2022/08/23 13:03:15;;;;;;;3.28;1.90;;;25.70;84.00;;;;;;4856095;29;20097;-88
2022/08/23 13:05:48;;;;;;;3.22;1.80;;;25.80;85.80;;;;;;4863079;29;20045;-88
2022/08/23 13:08:28;;;;;;;6.40;2.13;;;26.00;85.90;;;;;;4842093;29;20144;-89
2022/08/23 13:11:03;;;;;;;2.15;1.85;;;26.20;86.20;;;;;;4845105;29;20129;-92
2022/08/23 13:13:40;;;;;;;3.60;2.17;;;26.30;86.10;;;;;;4859602;29;20059;-89
2022/08/23 13:16:39;;;;;;;3.75;1.73;;;26.40;85.40;;;;;;4857347;29;20058;-88
2022/08/23 13:19:30;;;;;;;6.93;2.13;;;26.50;84.20;;;;;;4839316;29;20045;-88
2022/08/23 13:22:21;;;;;;;3.28;2.17;;;26.40;82.70;;;;;;4821668;29;20525;-87
2022/08/23 13:25:04;;;;;;;5.55;2.20;;;26.30;81.00;;;;;;4854691;29;20136;-87
2022/08/23 13:27:58;;;;;;;3.60;2.05;;;26.30;81.30;;;;;;4869998;29;20082;-87
2022/08/23 13:30:35;;;;;;;3.90;2.55;;;26.30;82.70;;;;;;4874079;29;20053;-86
2022/08/23 13:33:02;;;;;;;4.22;1.85;;;26.20;80.20;;;;;;4874780;29;20049;-87
2022/08/23 13:36:12;;;;;;;3.85;2.03;;;26.10;82.70;;;;;;4862030;29;20506;-87
2022/08/23 13:38:40;;;;;;;3.78;1.95;;;26.00;79.60;;;;;;4859852;29;20076;-88
2022/08/23 13:41:25;;;;;;;4.20;2.20;;;25.90;80.50;;;;;;4856035;29;20048;-87
2022/08/23 13:43:53;;;;;;;5.20;2.40;;;26.10;81.20;;;;;;4870195;29;20109;-87